sensor_id;sensor_type;location;lat;lon;timestamp;pressure;altitude;pressure_sealevel;temperature;humidity
28004;BME280;15330;51.234;6.754;2023-10-13T00:02:00;100172.69;;;13.83;100.00
28004;BME280;15330;51.234;6.754;2023-10-13T00:04:30;100163.22;;;13.87;100.00
28004;BME280;15330;51.234;6.754;2023-10-13T00:07:01;100163.00;;;13.88;100.00
28004;BME280;15330;51.234;6.754;2023-10-13T00:09:28;100165.47;;;13.83;100.00
28004;BME280;15330;51.234;6.754;2023-10-13T00:12:08;100164.69;;;13.89;100.00
28004;BME280;15330;51.234;6.754;2023-10-13T00:14:40;100155.13;;;13.87;100.00
28004;BME280;15330;51.234;6.754;2023-10-13T00:17:10;100158.66;;;13.87;100.00
28004;BME280;15330;51.234;6.754;2023-10-13T00:19:44;100148.75;;;13.88;100.00
28004;BME280;15330;51.234;6.754;2023-10-13T00:22:11;100146.47;;;13.91;100.00
28004;BME280;15330;51.234;6.754;2023-10-13T00:24:42;100139.44;;;13.90;100.00
28004;BME280;15330;51.234;6.754;2023-10-13T00:27:15;100137.38;;;13.92;100.00
28004;BME280;15330;51.234;6.754;2023-10-13T00:29:55;100141.72;;;13.93;100.00
28004;BME280;15330;51.234;6.754;2023-10-13T00:32:42;100137.78;;;13.89;100.00
28004;BME280;15330;51.234;6.754;2023-10-13T00:35:13;100132.22;;;13.91;100.00
28004;BME280;15330;51.234;6.754;2023-10-13T00:37:49;100127.63;;;13.85;100.00
28004;BME280;15330;51.234;6.754;2023-10-13T00:40:19;100122.06;;;13.86;100.00
28004;BME280;15330;51.234;6.754;2023-10-13T00:43:01;100113.16;;;13.86;100.00
28004;BME280;15330;51.234;6.754;2023-10-13T00:45:48;100123.06;;;13.85;100.00
28004;BME280;15330;51.234;6.754;2023-10-13T00:48:32;100122.25;;;13.91;100.00
28004;BME280;15330;51.234;6.754;2023-10-13T00:51:07;100109.25;;;13.88;100.00
28004;BME280;15330;51.234;6.754;2023-10-13T00:53:39;100105.91;;;13.86;100.00
28004;BME280;15330;51.234;6.754;2023-10-13T00:56:06;100100.53;;;13.86;100.00
28004;BME280;15330;51.234;6.754;2023-10-13T00:58:34;100103.63;;;13.83;100.00
28004;BME280;15330;51.234;6.754;2023-10-13T01:01:01;100109.44;;;13.80;100.00
28004;BME280;15330;51.234;6.754;2023-10-13T01:03:52;100102.59;;;13.84;100.00
28004;BME280;15330;51.234;6.754;2023-10-13T01:06:24;100102.59;;;13.78;100.00
28004;BME280;15330;51.234;6.754;2023-10-13T01:11:49;100101.13;;;13.82;100.00
28004;BME280;15330;51.234;6.754;2023-10-13T01:14:18;100092.03;;;13.83;100.00
28004;BME280;15330;51.234;6.754;2023-10-13T01:16:47;100097.84;;;13.86;100.00
28004;BME280;15330;51.234;6.754;2023-10-13T01:19:18;100081.47;;;13.81;100.00
28004;BME280;15330;51.234;6.754;2023-10-13T01:21:50;100083.97;;;13.83;100.00
28004;BME280;15330;51.234;6.754;2023-10-13T01:24:21;100076.53;;;13.78;100.00
28004;BME280;15330;51.234;6.754;2023-10-13T01:26:49;100072.38;;;13.76;100.00
28004;BME280;15330;51.234;6.754;2023-10-13T01:29:18;100074.44;;;13.74;100.00
28004;BME280;15330;51.234;6.754;2023-10-13T01:31:45;100079.84;;;13.80;100.00
28004;BME280;15330;51.234;6.754;2023-10-13T01:34:18;100080.44;;;13.76;100.00
28004;BME280;15330;51.234;6.754;2023-10-13T01:36:57;100081.06;;;13.78;100.00
28004;BME280;15330;51.234;6.754;2023-10-13T01:39:30;100073.59;;;13.73;100.00
28004;BME280;15330;51.234;6.754;2023-10-13T01:41:56;100069.63;;;13.63;100.00
28004;BME280;15330;51.234;6.754;2023-10-13T01:44:24;100059.50;;;13.58;100.00
28004;BME280;15330;51.234;6.754;2023-10-13T01:46:49;100060.13;;;13.60;100.00
28004;BME280;15330;51.234;6.754;2023-10-13T01:49:16;100055.56;;;13.60;100.00
28004;BME280;15330;51.234;6.754;2023-10-13T01:51:42;100052.47;;;13.57;100.00
28004;BME280;15330;51.234;6.754;2023-10-13T01:54:08;100046.91;;;13.58;100.00
28004;BME280;15330;51.234;6.754;2023-10-13T01:56:40;100047.09;;;13.57;100.00
28004;BME280;15330;51.234;6.754;2023-10-13T01:59:13;100041.47;;;13.52;100.00
28004;BME280;15330;51.234;6.754;2023-10-13T02:01:39;100030.91;;;13.44;100.00
28004;BME280;15330;51.234;6.754;2023-10-13T02:04:07;100025.38;;;13.52;100.00
28004;BME280;15330;51.234;6.754;2023-10-13T02:06:37;100029.31;;;13.56;100.00
28004;BME280;15330;51.234;6.754;2023-10-13T02:09:07;100020.63;;;13.54;100.00
28004;BME280;15330;51.234;6.754;2023-10-13T02:11:43;100023.28;;;13.47;100.00
28004;BME280;15330;51.234;6.754;2023-10-13T02:14:11;100016.03;;;13.41;100.00
28004;BME280;15330;51.234;6.754;2023-10-13T02:16:40;100019.34;;;13.43;100.00
28004;BME280;15330;51.234;6.754;2023-10-13T02:19:05;100019.16;;;13.45;100.00
28004;BME280;15330;51.234;6.754;2023-10-13T02:21:31;100018.13;;;13.46;100.00
28004;BME280;15330;51.234;6.754;2023-10-13T02:24:00;100002.59;;;13.41;100.00
28004;BME280;15330;51.234;6.754;2023-10-13T02:26:26;99998.91;;;13.49;100.00
28004;BME280;15330;51.234;6.754;2023-10-13T02:29:04;99997.66;;;13.45;100.00
28004;BME280;15330;51.234;6.754;2023-10-13T02:31:35;99995.41;;;13.48;100.00
28004;BME280;15330;51.234;6.754;2023-10-13T02:34:01;99994.56;;;13.48;100.00
28004;BME280;15330;51.234;6.754;2023-10-13T02:36:32;99992.91;;;13.47;100.00
28004;BME280;15330;51.234;6.754;2023-10-13T02:39:12;99997.84;;;13.43;100.00
28004;BME280;15330;51.234;6.754;2023-10-13T02:41:39;99991.19;;;13.33;100.00
28004;BME280;15330;51.234;6.754;2023-10-13T02:44:07;99981.47;;;13.32;100.00
28004;BME280;15330;51.234;6.754;2023-10-13T02:46:34;99976.94;;;13.32;100.00
28004;BME280;15330;51.234;6.754;2023-10-13T02:49:05;99970.34;;;13.41;100.00
28004;BME280;15330;51.234;6.754;2023-10-13T02:51:37;99971.75;;;13.31;100.00
28004;BME280;15330;51.234;6.754;2023-10-13T02:54:05;99966.38;;;13.31;100.00
28004;BME280;15330;51.234;6.754;2023-10-13T02:56:38;99970.75;;;13.32;100.00
28004;BME280;15330;51.234;6.754;2023-10-13T02:59:26;99964.09;;;13.21;100.00
28004;BME280;15330;51.234;6.754;2023-10-13T03:02:06;99964.09;;;13.21;100.00
28004;BME280;15330;51.234;6.754;2023-10-13T03:04:58;99963.91;;;13.29;100.00
28004;BME280;15330;51.234;6.754;2023-10-13T03:07:35;99967.66;;;13.28;100.00
28004;BME280;15330;51.234;6.754;2023-10-13T03:10:02;99953.00;;;13.37;100.00
28004;BME280;15330;51.234;6.754;2023-10-13T03:12:38;99949.88;;;13.34;100.00
28004;BME280;15330;51.234;6.754;2023-10-13T03:15:04;99931.91;;;13.34;100.00
28004;BME280;15330;51.234;6.754;2023-10-13T03:17:44;99932.09;;;13.33;100.00
28004;BME280;15330;51.234;6.754;2023-10-13T03:20:10;99926.09;;;13.31;100.00
28004;BME280;15330;51.234;6.754;2023-10-13T03:22:42;99926.72;;;13.33;100.00
28004;BME280;15330;51.234;6.754;2023-10-13T03:25:11;99915.16;;;13.32;100.00
28004;BME280;15330;51.234;6.754;2023-10-13T03:27:43;99911.44;;;13.27;100.00
28004;BME280;15330;51.234;6.754;2023-10-13T03:30:26;99913.31;;;13.33;100.00
28004;BME280;15330;51.234;6.754;2023-10-13T03:33:07;99905.63;;;13.23;100.00
28004;BME280;15330;51.234;6.754;2023-10-13T03:35:37;99905.03;;;13.28;100.00
28004;BME280;15330;51.234;6.754;2023-10-13T03:38:03;99905.84;;;13.21;100.00
28004;BME280;15330;51.234;6.754;2023-10-13T03:40:29;99902.13;;;13.29;100.00
28004;BME280;15330;51.234;6.754;2023-10-13T03:42:58;99890.56;;;13.22;100.00
28004;BME280;15330;51.234;6.754;2023-10-13T03:45:27;99889.31;;;13.18;100.00
28004;BME280;15330;51.234;6.754;2023-10-13T03:47:53;99889.53;;;13.23;100.00
28004;BME280;15330;51.234;6.754;2023-10-13T03:50:21;99879.81;;;13.22;100.00
28004;BME280;15330;51.234;6.754;2023-10-13T03:52:57;99874.88;;;13.26;100.00
28004;BME280;15330;51.234;6.754;2023-10-13T03:55:24;99875.91;;;13.25;100.00
28004;BME280;15330;51.234;6.754;2023-10-13T03:57:52;99867.00;;;13.24;100.00
28004;BME280;15330;51.234;6.754;2023-10-13T04:00:18;99875.50;;;13.28;100.00
28004;BME280;15330;51.234;6.754;2023-10-13T04:02:50;99863.50;;;13.23;100.00
28004;BME280;15330;51.234;6.754;2023-10-13T04:05:42;99865.56;;;13.21;100.00
28004;BME280;15330;51.234;6.754;2023-10-13T04:08:11;99873.22;;;13.25;100.00
28004;BME280;15330;51.234;6.754;2023-10-13T04:10:42;99870.31;;;13.26;100.00
28004;BME280;15330;51.234;6.754;2023-10-13T04:13:17;99864.31;;;13.24;100.00
28004;BME280;15330;51.234;6.754;2023-10-13T04:16:01;99858.13;;;13.30;100.00
28004;BME280;15330;51.234;6.754;2023-10-13T04:18:45;99844.09;;;13.28;100.00
28004;BME280;15330;51.234;6.754;2023-10-13T04:21:23;99853.78;;;13.29;100.00
28004;BME280;15330;51.234;6.754;2023-10-13T04:24:05;99841.19;;;13.30;100.00
28004;BME280;15330;51.234;6.754;2023-10-13T04:26:34;99835.59;;;13.31;100.00
28004;BME280;15330;51.234;6.754;2023-10-13T04:29:07;99828.56;;;13.30;100.00
28004;BME280;15330;51.234;6.754;2023-10-13T04:31:56;99834.78;;;13.24;100.00
28004;BME280;15330;51.234;6.754;2023-10-13T04:34:25;99828.81;;;13.29;100.00
28004;BME280;15330;51.234;6.754;2023-10-13T04:36:59;99820.13;;;13.27;100.00
28004;BME280;15330;51.234;6.754;2023-10-13T04:39:45;99803.19;;;13.26;100.00
28004;BME280;15330;51.234;6.754;2023-10-13T04:42:10;99807.91;;;13.31;100.00
28004;BME280;15330;51.234;6.754;2023-10-13T04:44:51;99811.63;;;13.30;100.00
28004;BME280;15330;51.234;6.754;2023-10-13T04:47:21;99803.78;;;13.21;100.00
28004;BME280;15330;51.234;6.754;2023-10-13T04:49:47;99800.28;;;13.21;100.00
28004;BME280;15330;51.234;6.754;2023-10-13T04:52:12;99790.59;;;13.27;100.00
28004;BME280;15330;51.234;6.754;2023-10-13T04:54:52;99795.94;;;13.27;100.00
28004;BME280;15330;51.234;6.754;2023-10-13T04:57:21;99792.44;;;13.26;100.00
28004;BME280;15330;51.234;6.754;2023-10-13T05:00:06;99780.66;;;13.27;100.00
28004;BME280;15330;51.234;6.754;2023-10-13T05:02:58;99780.63;;;13.20;100.00
28004;BME280;15330;51.234;6.754;2023-10-13T05:05:26;99788.94;;;13.26;100.00
28004;BME280;15330;51.234;6.754;2023-10-13T05:08:10;99781.69;;;13.26;100.00
28004;BME280;15330;51.234;6.754;2023-10-13T05:10:54;99786.88;;;13.28;100.00
28004;BME280;15330;51.234;6.754;2023-10-13T05:13:38;99789.13;;;13.31;100.00
28004;BME280;15330;51.234;6.754;2023-10-13T05:16:22;99784.38;;;13.33;100.00
28004;BME280;15330;51.234;6.754;2023-10-13T05:19:06;99783.34;;;13.27;100.00
28004;BME280;15330;51.234;6.754;2023-10-13T05:21:50;99784.78;;;13.30;100.00
28004;BME280;15330;51.234;6.754;2023-10-13T05:24:34;99789.97;;;13.38;100.00
28004;BME280;15330;51.234;6.754;2023-10-13T05:27:18;99779.84;;;13.33;100.00
28004;BME280;15330;51.234;6.754;2023-10-13T05:30:02;99781.50;;;13.28;100.00
28004;BME280;15330;51.234;6.754;2023-10-13T05:32:46;99788.09;;;13.32;100.00
28004;BME280;15330;51.234;6.754;2023-10-13T05:35:30;99784.81;;;13.36;100.00
28004;BME280;15330;51.234;6.754;2023-10-13T05:38:15;99795.75;;;13.35;100.00
28004;BME280;15330;51.234;6.754;2023-10-13T05:41:00;99791.41;;;13.40;100.00
28004;BME280;15330;51.234;6.754;2023-10-13T05:43:45;99790.78;;;13.45;100.00
28004;BME280;15330;51.234;6.754;2023-10-13T05:46:29;99794.72;;;13.55;100.00
28004;BME280;15330;51.234;6.754;2023-10-13T05:49:08;99800.69;;;13.64;100.00
28004;BME280;15330;51.234;6.754;2023-10-13T05:51:36;99816.41;;;13.67;100.00
28004;BME280;15330;51.234;6.754;2023-10-13T05:54:06;99824.88;;;13.71;100.00
28004;BME280;15330;51.234;6.754;2023-10-13T05:56:44;99827.34;;;13.72;100.00
28004;BME280;15330;51.234;6.754;2023-10-13T05:59:29;99834.19;;;13.75;100.00
28004;BME280;15330;51.234;6.754;2023-10-13T06:02:15;99819.91;;;13.74;100.00
28004;BME280;15330;51.234;6.754;2023-10-13T06:05:06;99813.72;;;13.74;100.00
28004;BME280;15330;51.234;6.754;2023-10-13T06:07:51;99806.91;;;13.78;100.00
28004;BME280;15330;51.234;6.754;2023-10-13T06:10:36;99806.91;;;13.78;100.00
28004;BME280;15330;51.234;6.754;2023-10-13T06:13:20;99789.75;;;13.79;100.00
28004;BME280;15330;51.234;6.754;2023-10-13T06:16:09;99790.75;;;13.84;100.00
28004;BME280;15330;51.234;6.754;2023-10-13T06:18:53;99779.59;;;13.87;100.00
28004;BME280;15330;51.234;6.754;2023-10-13T06:21:37;99780.41;;;13.88;100.00
28004;BME280;15330;51.234;6.754;2023-10-13T06:24:21;99768.41;;;13.84;100.00
28004;BME280;15330;51.234;6.754;2023-10-13T06:27:05;99752.50;;;13.82;100.00
28004;BME280;15330;51.234;6.754;2023-10-13T06:29:49;99756.66;;;13.78;100.00
28004;BME280;15330;51.234;6.754;2023-10-13T06:32:15;99740.75;;;13.77;100.00
28004;BME280;15330;51.234;6.754;2023-10-13T06:34:44;99726.47;;;13.76;100.00
28004;BME280;15330;51.234;6.754;2023-10-13T06:37:16;99732.84;;;13.82;100.00
28004;BME280;15330;51.234;6.754;2023-10-13T06:40:00;99716.53;;;13.83;100.00
28004;BME280;15330;51.234;6.754;2023-10-13T06:42:33;99726.88;;;13.86;100.00
28004;BME280;15330;51.234;6.754;2023-10-13T06:45:08;99725.41;;;13.90;100.00
28004;BME280;15330;51.234;6.754;2023-10-13T06:47:37;99725.41;;;13.90;100.00
28004;BME280;15330;51.234;6.754;2023-10-13T06:50:09;99725.59;;;13.95;100.00
28004;BME280;15330;51.234;6.754;2023-10-13T06:52:44;99721.66;;;13.98;100.00
28004;BME280;15330;51.234;6.754;2023-10-13T06:55:10;99731.19;;;14.01;100.00
28004;BME280;15330;51.234;6.754;2023-10-13T06:58:08;99725.56;;;14.02;100.00
28004;BME280;15330;51.234;6.754;2023-10-13T07:00:38;99725.34;;;14.10;100.00
28004;BME280;15330;51.234;6.754;2023-10-13T07:03:06;99721.38;;;14.13;100.00
28004;BME280;15330;51.234;6.754;2023-10-13T07:05:38;99721.63;;;14.11;100.00
28004;BME280;15330;51.234;6.754;2023-10-13T07:08:07;99719.34;;;14.08;100.00
28004;BME280;15330;51.234;6.754;2023-10-13T07:10:34;99728.88;;;14.11;100.00
28004;BME280;15330;51.234;6.754;2023-10-13T07:13:16;99726.38;;;14.09;100.00
28004;BME280;15330;51.234;6.754;2023-10-13T07:15:42;99722.66;;;14.10;100.00
28004;BME280;15330;51.234;6.754;2023-10-13T07:18:13;99716.44;;;14.10;100.00
28004;BME280;15330;51.234;6.754;2023-10-13T07:20:41;99712.09;;;14.09;100.00
28004;BME280;15330;51.234;6.754;2023-10-13T07:23:11;99708.38;;;14.10;100.00
28004;BME280;15330;51.234;6.754;2023-10-13T07:25:43;99716.88;;;14.07;100.00
28004;BME280;15330;51.234;6.754;2023-10-13T07:28:16;99711.28;;;14.08;100.00
28004;BME280;15330;51.234;6.754;2023-10-13T07:30:41;99704.88;;;14.09;100.00
28004;BME280;15330;51.234;6.754;2023-10-13T07:33:15;99706.53;;;14.04;100.00
28004;BME280;15330;51.234;6.754;2023-10-13T07:35:45;99698.88;;;14.07;100.00
28004;BME280;15330;51.234;6.754;2023-10-13T07:38:16;99703.78;;;14.17;100.00
28004;BME280;15330;51.234;6.754;2023-10-13T07:40:42;99712.44;;;14.25;100.00
28004;BME280;15330;51.234;6.754;2023-10-13T07:43:15;99701.44;;;14.33;100.00
28004;BME280;15330;51.234;6.754;2023-10-13T07:45:47;99697.75;;;14.28;100.00
28004;BME280;15330;51.234;6.754;2023-10-13T07:48:17;99695.00;;;14.34;100.00
28004;BME280;15330;51.234;6.754;2023-10-13T07:51:02;99694.41;;;14.39;100.00
28004;BME280;15330;51.234;6.754;2023-10-13T07:53:38;99688.97;;;14.52;100.00
28004;BME280;15330;51.234;6.754;2023-10-13T07:56:09;99689.06;;;14.64;100.00
28004;BME280;15330;51.234;6.754;2023-10-13T07:58:37;99689.25;;;14.69;100.00
28004;BME280;15330;51.234;6.754;2023-10-13T08:01:18;99678.63;;;14.81;100.00
28004;BME280;15330;51.234;6.754;2023-10-13T08:03:44;99692.38;;;14.97;100.00
28004;BME280;15330;51.234;6.754;2023-10-13T08:06:14;99673.25;;;15.49;100.00
28004;BME280;15330;51.234;6.754;2023-10-13T08:08:40;99672.38;;;15.36;100.00
28004;BME280;15330;51.234;6.754;2023-10-13T08:13:39;99654.66;;;15.22;100.00
28004;BME280;15330;51.234;6.754;2023-10-13T08:16:14;99659.69;;;15.37;100.00
28004;BME280;15330;51.234;6.754;2023-10-13T08:18:49;99657.22;;;15.60;100.00
28004;BME280;15330;51.234;6.754;2023-10-13T08:21:16;99653.00;;;16.01;100.00
28004;BME280;15330;51.234;6.754;2023-10-13T08:23:43;99656.81;;;16.41;100.00
28004;BME280;15330;51.234;6.754;2023-10-13T08:26:21;99662.28;;;16.95;100.00
28004;BME280;15330;51.234;6.754;2023-10-13T08:29:02;99658.41;;;17.84;100.00
28004;BME280;15330;51.234;6.754;2023-10-13T08:31:47;99670.38;;;18.00;100.00
28004;BME280;15330;51.234;6.754;2023-10-13T08:34:36;99662.91;;;18.18;100.00
28004;BME280;15330;51.234;6.754;2023-10-13T08:37:08;99669.84;;;17.74;100.00
28004;BME280;15330;51.234;6.754;2023-10-13T08:39:57;99667.63;;;18.11;96.78
28004;BME280;15330;51.234;6.754;2023-10-13T08:42:30;99664.78;;;18.58;93.68
28004;BME280;15330;51.234;6.754;2023-10-13T08:45:13;99659.72;;;18.21;94.58
28004;BME280;15330;51.234;6.754;2023-10-13T08:48:00;99645.91;;;18.63;92.37
28004;BME280;15330;51.234;6.754;2023-10-13T08:58:45;99645.28;;;18.16;90.53
28004;BME280;15330;51.234;6.754;2023-10-13T09:06:59;99628.00;;;20.33;80.88
28004;BME280;15330;51.234;6.754;2023-10-13T09:14:56;99624.56;;;19.17;82.44
28004;BME280;15330;51.234;6.754;2023-10-13T09:17:26;99618.44;;;19.43;81.88
28004;BME280;15330;51.234;6.754;2023-10-13T09:20:07;99620.97;;;20.10;76.90
28004;BME280;15330;51.234;6.754;2023-10-13T09:22:49;99613.78;;;19.77;75.66
28004;BME280;15330;51.234;6.754;2023-10-13T09:25:30;99605.16;;;19.63;76.89
28004;BME280;15330;51.234;6.754;2023-10-13T09:28:00;99606.13;;;19.35;79.88
28004;BME280;15330;51.234;6.754;2023-10-13T09:30:26;99606.53;;;19.61;79.91
28004;BME280;15330;51.234;6.754;2023-10-13T09:33:04;99606.88;;;21.88;68.26
28004;BME280;15330;51.234;6.754;2023-10-13T09:35:31;99606.72;;;20.78;70.88
28004;BME280;15330;51.234;6.754;2023-10-13T09:38:00;99587.81;;;19.26;80.34
28004;BME280;15330;51.234;6.754;2023-10-13T09:40:29;99594.75;;;19.99;77.46
28004;BME280;15330;51.234;6.754;2023-10-13T09:42:58;99590.22;;;23.02;63.77
28004;BME280;15330;51.234;6.754;2023-10-13T09:45:31;99580.31;;;23.27;60.69
28004;BME280;15330;51.234;6.754;2023-10-13T09:48:31;99575.41;;;22.22;64.84
28004;BME280;15330;51.234;6.754;2023-10-13T09:50:59;99574.03;;;21.47;69.12
28004;BME280;15330;51.234;6.754;2023-10-13T09:53:25;99572.44;;;22.75;64.77
28004;BME280;15330;51.234;6.754;2023-10-13T09:55:56;99578.47;;;25.14;52.36
28004;BME280;15330;51.234;6.754;2023-10-13T09:58:27;99581.59;;;24.68;51.66
28004;BME280;15330;51.234;6.754;2023-10-13T10:01:02;99574.22;;;21.88;58.50
28004;BME280;15330;51.234;6.754;2023-10-13T10:03:50;99589.19;;;21.33;61.73
28004;BME280;15330;51.234;6.754;2023-10-13T10:06:36;99584.94;;;20.41;65.94
28004;BME280;15330;51.234;6.754;2023-10-13T10:09:09;99570.53;;;19.92;67.15
28004;BME280;15330;51.234;6.754;2023-10-13T10:17:11;99578.69;;;19.49;68.90
28004;BME280;15330;51.234;6.754;2023-10-13T10:20:05;99570.97;;;19.40;69.15
28004;BME280;15330;51.234;6.754;2023-10-13T10:22:40;99578.31;;;19.45;69.37
28004;BME280;15330;51.234;6.754;2023-10-13T10:25:13;99559.44;;;19.33;69.11
28004;BME280;15330;51.234;6.754;2023-10-13T10:27:58;99570.31;;;19.50;69.72
28004;BME280;15330;51.234;6.754;2023-10-13T10:30:28;99539.28;;;19.24;69.40
28004;BME280;15330;51.234;6.754;2023-10-13T10:32:55;99544.03;;;19.56;67.69
28004;BME280;15330;51.234;6.754;2023-10-13T10:35:45;99550.09;;;19.41;67.92
28004;BME280;15330;51.234;6.754;2023-10-13T10:38:12;99542.47;;;19.82;66.54
28004;BME280;15330;51.234;6.754;2023-10-13T10:40:55;99539.03;;;20.18;62.86
28004;BME280;15330;51.234;6.754;2023-10-13T10:46:28;99536.56;;;19.90;64.74
28004;BME280;15330;51.234;6.754;2023-10-13T10:48:57;99534.19;;;19.93;65.27
28004;BME280;15330;51.234;6.754;2023-10-13T10:51:27;99524.19;;;19.72;65.60
28004;BME280;15330;51.234;6.754;2023-10-13T10:53:59;99527.16;;;19.70;64.83
28004;BME280;15330;51.234;6.754;2023-10-13T10:56:37;99519.72;;;19.61;66.21
28004;BME280;15330;51.234;6.754;2023-10-13T10:59:04;99520.94;;;19.53;66.10
28004;BME280;15330;51.234;6.754;2023-10-13T11:01:31;99522.34;;;19.56;65.46
28004;BME280;15330;51.234;6.754;2023-10-13T11:04:05;99517.16;;;19.54;65.25
28004;BME280;15330;51.234;6.754;2023-10-13T11:06:35;99506.31;;;19.54;65.14
28004;BME280;15330;51.234;6.754;2023-10-13T11:09:07;99507.47;;;19.58;63.81
28004;BME280;15330;51.234;6.754;2023-10-13T11:11:51;99498.81;;;19.61;63.64
28004;BME280;15330;51.234;6.754;2023-10-13T11:14:29;99502.63;;;19.60;63.41
28004;BME280;15330;51.234;6.754;2023-10-13T11:16:56;99496.47;;;19.70;64.42
28004;BME280;15330;51.234;6.754;2023-10-13T11:19:42;99492.56;;;19.83;62.11
28004;BME280;15330;51.234;6.754;2023-10-13T11:22:15;99488.44;;;19.80;63.07
28004;BME280;15330;51.234;6.754;2023-10-13T11:25:03;99493.69;;;20.19;61.41
28004;BME280;15330;51.234;6.754;2023-10-13T11:27:36;99479.13;;;19.98;61.90
28004;BME280;15330;51.234;6.754;2023-10-13T11:30:14;99470.41;;;20.60;59.87
28004;BME280;15330;51.234;6.754;2023-10-13T11:32:42;99464.22;;;20.69;59.92
28004;BME280;15330;51.234;6.754;2023-10-13T11:35:11;99461.97;;;20.56;60.04
28004;BME280;15330;51.234;6.754;2023-10-13T11:37:50;99461.94;;;20.51;59.87
28004;BME280;15330;51.234;6.754;2023-10-13T11:40:29;99458.47;;;20.61;59.63
28004;BME280;15330;51.234;6.754;2023-10-13T11:43:10;99455.56;;;20.72;57.83
28004;BME280;15330;51.234;6.754;2023-10-13T11:45:40;99452.16;;;20.97;58.07
28004;BME280;15330;51.234;6.754;2023-10-13T11:48:20;99446.84;;;20.65;57.71
28004;BME280;15330;51.234;6.754;2023-10-13T11:51:00;99445.34;;;20.47;58.62
28004;BME280;15330;51.234;6.754;2023-10-13T11:53:26;99459.16;;;20.41;58.56
28004;BME280;15330;51.234;6.754;2023-10-13T11:55:54;99446.53;;;20.30;58.95
28004;BME280;15330;51.234;6.754;2023-10-13T11:58:20;99439.97;;;20.21;59.33
28004;BME280;15330;51.234;6.754;2023-10-13T12:00:45;99424.19;;;20.17;59.79
28004;BME280;15330;51.234;6.754;2023-10-13T12:03:30;99441.78;;;20.15;58.67
28004;BME280;15330;51.234;6.754;2023-10-13T12:06:14;99444.47;;;20.10;60.38
28004;BME280;15330;51.234;6.754;2023-10-13T12:09:07;99447.69;;;20.02;60.00
28004;BME280;15330;51.234;6.754;2023-10-13T12:11:46;99433.53;;;20.00;60.22
28004;BME280;15330;51.234;6.754;2023-10-13T12:14:13;99436.25;;;20.00;59.04
28004;BME280;15330;51.234;6.754;2023-10-13T12:16:48;99433.03;;;20.03;59.37
28004;BME280;15330;51.234;6.754;2023-10-13T12:19:25;99427.53;;;19.98;59.49
28004;BME280;15330;51.234;6.754;2023-10-13T12:21:54;99432.47;;;20.01;59.17
28004;BME280;15330;51.234;6.754;2023-10-13T12:26:56;99424.50;;;19.94;60.31
28004;BME280;15330;51.234;6.754;2023-10-13T12:29:25;99417.66;;;19.87;60.09
28004;BME280;15330;51.234;6.754;2023-10-13T12:32:00;99418.25;;;19.89;59.67
28004;BME280;15330;51.234;6.754;2023-10-13T12:34:37;99416.59;;;19.88;59.46
28004;BME280;15330;51.234;6.754;2023-10-13T12:37:21;99401.03;;;19.78;60.83
28004;BME280;15330;51.234;6.754;2023-10-13T12:40:06;99405.97;;;19.81;60.44
28004;BME280;15330;51.234;6.754;2023-10-13T12:42:51;99400.00;;;19.84;60.36
28004;BME280;15330;51.234;6.754;2023-10-13T12:45:42;99405.19;;;19.86;58.68
28004;BME280;15330;51.234;6.754;2023-10-13T12:48:27;99401.38;;;19.87;58.55
28004;BME280;15330;51.234;6.754;2023-10-13T12:51:11;99405.75;;;19.88;58.73
28004;BME280;15330;51.234;6.754;2023-10-13T12:53:51;99401.38;;;19.87;58.45
28004;BME280;15330;51.234;6.754;2023-10-13T12:56:17;99404.69;;;19.94;57.00
28004;BME280;15330;51.234;6.754;2023-10-13T12:58:43;99396.53;;;19.89;57.50
28004;BME280;15330;51.234;6.754;2023-10-13T13:01:23;99402.22;;;19.87;57.23
28004;BME280;15330;51.234;6.754;2023-10-13T13:03:50;99414.44;;;19.90;56.54
28004;BME280;15330;51.234;6.754;2023-10-13T13:06:19;99414.13;;;19.86;56.47
28004;BME280;15330;51.234;6.754;2023-10-13T13:08:57;99407.97;;;19.96;55.73
28004;BME280;15330;51.234;6.754;2023-10-13T13:11:24;99407.97;;;19.96;55.81
28004;BME280;15330;51.234;6.754;2023-10-13T13:13:50;99415.28;;;19.90;55.75
28004;BME280;15330;51.234;6.754;2023-10-13T13:16:16;99423.41;;;19.90;55.21
28004;BME280;15330;51.234;6.754;2023-10-13T13:18:52;99416.69;;;19.98;54.91
28004;BME280;15330;51.234;6.754;2023-10-13T13:21:20;99411.25;;;19.98;54.84
28004;BME280;15330;51.234;6.754;2023-10-13T13:23:51;99409.03;;;19.90;55.39
28004;BME280;15330;51.234;6.754;2023-10-13T13:26:20;99411.72;;;19.90;55.08
28004;BME280;15330;51.234;6.754;2023-10-13T13:28:45;99405.44;;;19.84;54.84
28004;BME280;15330;51.234;6.754;2023-10-13T13:31:15;99409.78;;;19.85;54.69
28004;BME280;15330;51.234;6.754;2023-10-13T13:33:41;99408.44;;;19.88;55.16
28004;BME280;15330;51.234;6.754;2023-10-13T13:36:11;99407.94;;;19.91;54.15
28004;BME280;15330;51.234;6.754;2023-10-13T13:38:41;99395.97;;;19.87;54.31
28004;BME280;15330;51.234;6.754;2023-10-13T13:41:14;99393.75;;;19.84;53.81
28004;BME280;15330;51.234;6.754;2023-10-13T13:43:45;99394.03;;;19.82;53.83
28004;BME280;15330;51.234;6.754;2023-10-13T13:46:22;99388.53;;;19.77;54.07
28004;BME280;15330;51.234;6.754;2023-10-13T13:48:53;99388.22;;;19.73;54.42
28004;BME280;15330;51.234;6.754;2023-10-13T13:51:29;99385.31;;;19.80;54.02
28004;BME280;15330;51.234;6.754;2023-10-13T13:53:58;99388.81;;;19.75;53.89
28004;BME280;15330;51.234;6.754;2023-10-13T13:56:24;99393.75;;;19.84;53.64
28004;BME280;15330;51.234;6.754;2023-10-13T13:58:54;99381.47;;;19.76;53.94
28004;BME280;15330;51.234;6.754;2023-10-13T14:01:21;99383.44;;;19.81;53.64
28004;BME280;15330;51.234;6.754;2023-10-13T14:03:49;99380.66;;;19.75;53.88
28004;BME280;15330;51.234;6.754;2023-10-13T14:06:23;99373.31;;;19.71;54.13